createdAt,value
2018-05-17T00:02:12.296Z,10.20
2018-05-17T00:04:39.426Z,10.47
2018-05-17T00:07:05.849Z,10.57
2018-05-17T00:09:32.266Z,10.37
2018-05-17T00:11:58.680Z,11.00
2018-05-17T00:14:25.083Z,11.20
2018-05-17T00:16:52.206Z,10.07
2018-05-17T00:19:18.626Z,9.50
2018-05-17T00:21:45.043Z,9.13
2018-05-17T00:24:11.438Z,9.83
2018-05-17T00:26:37.833Z,10.00
2018-05-17T00:29:04.242Z,9.90
2018-05-17T00:31:30.629Z,9.63
2018-05-17T00:33:57.043Z,9.07
2018-05-17T00:36:24.183Z,10.27
2018-05-17T00:38:50.568Z,10.53
2018-05-17T00:41:16.962Z,10.63
2018-05-17T00:43:44.101Z,9.80
2018-05-17T00:46:10.518Z,10.83
2018-05-17T00:48:36.906Z,11.40
2018-05-17T00:51:03.302Z,10.43
2018-05-17T00:53:30.492Z,10.43
2018-05-17T00:55:56.915Z,9.17
2018-05-17T00:58:23.487Z,9.30
2018-05-17T01:00:49.896Z,10.87
2018-05-17T01:03:16.305Z,10.67
2018-05-17T01:05:43.442Z,9.60
2018-05-17T01:08:10.606Z,10.97
2018-05-17T01:10:37.736Z,9.30
2018-05-17T01:13:04.906Z,9.80
2018-05-17T01:15:31.365Z,10.33
2018-05-17T01:17:57.756Z,12.33
2018-05-17T01:20:24.906Z,12.87
2018-05-17T01:22:52.084Z,11.10
2018-05-17T01:25:18.504Z,12.90
2018-05-17T01:27:44.893Z,10.93
2018-05-17T01:30:11.317Z,10.30
2018-05-17T01:32:37.723Z,12.00
2018-05-17T01:35:04.195Z,11.77
2018-05-17T01:37:43.659Z,12.50
2018-05-17T01:40:10.792Z,11.77
2018-05-17T01:42:37.183Z,12.60
2018-05-17T01:45:03.610Z,13.07
2018-05-17T01:47:30.036Z,14.40
2018-05-17T01:49:56.426Z,13.60
2018-05-17T01:52:22.819Z,13.70
2018-05-17T01:54:49.203Z,15.00
2018-05-17T01:57:16.343Z,13.77
2018-05-17T01:59:42.740Z,15.43
2018-05-17T02:02:09.251Z,14.97
2018-05-17T02:04:35.642Z,15.60
2018-05-17T02:07:02.838Z,13.57
2018-05-17T02:09:29.303Z,14.80
2018-05-17T02:11:55.699Z,16.43
2018-05-17T02:14:22.112Z,15.40
2018-05-17T02:16:49.273Z,14.73
2018-05-17T02:19:15.686Z,15.30
2018-05-17T02:21:42.857Z,15.63
2018-05-17T02:24:09.301Z,15.63
2018-05-17T02:26:35.705Z,15.50
2018-05-17T02:29:02.870Z,16.60
2018-05-17T02:31:29.270Z,16.70
2018-05-17T02:33:56.448Z,17.70
2018-05-17T02:36:23.592Z,17.87
2018-05-17T02:38:50.056Z,18.17
2018-05-17T02:41:16.451Z,17.27
2018-05-17T02:43:43.567Z,18.17
2018-05-17T02:46:09.986Z,16.50
2018-05-17T02:48:36.387Z,16.80
2018-05-17T02:51:02.784Z,17.80
2018-05-17T02:53:29.946Z,16.53
2018-05-17T02:55:57.073Z,17.83
2018-05-17T02:58:23.467Z,17.77
2018-05-17T03:00:49.884Z,19.13
2018-05-17T03:03:16.292Z,15.73
2018-05-17T03:05:42.684Z,18.50
2018-05-17T03:08:09.080Z,18.43
2018-05-17T03:10:35.480Z,19.50
2018-05-17T03:13:01.979Z,18.03
2018-05-17T03:15:28.385Z,19.03
2018-05-17T03:17:54.782Z,18.20
2018-05-17T03:20:21.185Z,19.27
2018-05-17T03:22:47.603Z,18.47
2018-05-17T03:25:14.073Z,18.30
2018-05-17T03:27:40.422Z,17.60
2018-05-17T03:30:07.562Z,18.10
2018-05-17T03:32:33.956Z,17.60
2018-05-17T03:35:00.366Z,17.67
2018-05-17T03:37:26.806Z,18.80
2018-05-17T03:39:53.222Z,18.37
2018-05-17T03:42:19.629Z,18.90
2018-05-17T03:44:46.025Z,19.77
2018-05-17T03:47:12.430Z,18.77
2018-05-17T03:49:38.847Z,19.70
2018-05-17T03:52:05.977Z,19.17
2018-05-17T03:54:33.114Z,16.80
2018-05-17T03:57:00.988Z,18.20
2018-05-17T03:59:27.370Z,19.43
2018-05-17T04:02:06.138Z,17.77
2018-05-17T04:04:44.975Z,17.67
2018-05-17T04:07:12.994Z,17.00
2018-05-17T04:09:39.367Z,19.50
2018-05-17T04:12:05.775Z,19.20
2018-05-17T04:14:32.171Z,18.73
2018-05-17T04:16:58.587Z,18.77
2018-05-17T04:19:25.710Z,19.60
2018-05-17T04:21:52.186Z,19.87
2018-05-17T04:24:18.621Z,18.07
2018-05-17T04:26:45.030Z,16.77
2018-05-17T04:29:12.202Z,18.30
2018-05-17T04:31:38.584Z,16.40
2018-05-17T04:34:04.987Z,16.93
2018-05-17T04:36:31.404Z,16.83
2018-05-17T04:38:57.836Z,16.60
2018-05-17T04:41:24.280Z,18.30
2018-05-17T04:43:50.707Z,15.90
2018-05-17T04:46:17.115Z,16.27
2018-05-17T04:48:43.538Z,16.10
2018-05-17T04:51:10.690Z,17.63
2018-05-17T04:53:37.836Z,18.33
2018-05-17T04:56:05.003Z,17.50
2018-05-17T04:58:31.454Z,17.37
2018-05-17T05:00:57.857Z,17.77
2018-05-17T05:03:25.006Z,17.93
2018-05-17T05:05:52.168Z,17.90
2018-05-17T05:08:18.564Z,17.33
2018-05-17T05:10:45.019Z,15.90
2018-05-17T05:13:12.187Z,17.77
2018-05-17T05:15:38.596Z,16.97
2018-05-17T05:18:05.755Z,16.90
2018-05-17T05:20:32.900Z,16.43
2018-05-17T05:23:00.027Z,15.97
2018-05-17T05:25:27.187Z,16.93
2018-05-17T05:27:54.374Z,14.93
2018-05-17T05:30:20.775Z,16.53
2018-05-17T05:32:48.178Z,16.83
2018-05-17T05:35:15.476Z,15.87
2018-05-17T05:37:41.931Z,16.70
2018-05-17T05:40:09.068Z,16.50
2018-05-17T05:42:36.272Z,15.47
2018-05-17T05:45:02.724Z,15.90
2018-05-17T05:47:29.160Z,17.50
2018-05-17T05:49:56.336Z,19.23
2018-05-17T05:52:23.502Z,16.40
2018-05-17T05:54:49.924Z,16.43
2018-05-17T05:57:17.108Z,16.70
2018-05-17T05:59:43.578Z,18.87
2018-05-17T06:02:09.992Z,16.30
2018-05-17T06:04:36.436Z,17.93
2018-05-17T06:07:02.934Z,15.60
2018-05-17T06:09:29.340Z,16.67
2018-05-17T06:11:56.508Z,18.27
2018-05-17T06:14:23.705Z,16.43
2018-05-17T06:16:50.149Z,15.80
2018-05-17T06:19:16.843Z,17.30
2018-05-17T06:21:43.272Z,18.47
2018-05-17T06:24:09.667Z,17.67
2018-05-17T06:26:36.831Z,17.80
2018-05-17T06:29:03.989Z,20.40
2018-05-17T06:31:31.159Z,18.97
2018-05-17T06:33:57.632Z,18.30
2018-05-17T06:36:24.034Z,16.03
2018-05-17T06:38:50.492Z,19.67
2018-05-17T06:41:16.972Z,17.73
2018-05-17T06:43:43.418Z,18.73
2018-05-17T06:46:09.829Z,20.87
2018-05-17T06:48:36.244Z,18.60
2018-05-17T06:51:02.681Z,18.90
2018-05-17T06:53:29.102Z,18.67
2018-05-17T06:55:55.530Z,17.27
2018-05-17T06:58:21.945Z,17.40
2018-05-17T07:00:48.389Z,16.93
2018-05-17T07:03:14.781Z,16.83
2018-05-17T07:05:41.183Z,19.10
2018-05-17T07:08:07.597Z,17.13
2018-05-17T07:10:34.023Z,17.20
2018-05-17T07:13:00.484Z,18.20
2018-05-17T07:15:27.658Z,16.30
2018-05-17T07:17:54.820Z,16.50
2018-05-17T07:20:21.256Z,18.07
2018-05-17T07:22:47.653Z,16.50
2018-05-17T07:25:14.145Z,15.53
2018-05-17T07:27:40.862Z,16.63
2018-05-17T07:30:07.359Z,16.10
2018-05-17T07:32:33.790Z,16.10
2018-05-17T07:35:00.315Z,17.03
2018-05-17T07:37:26.754Z,15.93
2018-05-17T07:39:54.665Z,17.70
2018-05-17T07:42:21.084Z,23.27
2018-05-17T07:44:47.505Z,19.40
2018-05-17T07:47:14.710Z,17.43
2018-05-17T07:49:41.087Z,19.40
2018-05-17T07:52:08.323Z,18.43
2018-05-17T07:54:35.399Z,18.23
2018-05-17T07:57:01.833Z,16.90
2018-05-17T07:59:29.023Z,17.17
2018-05-17T08:01:55.474Z,15.70
2018-05-17T08:04:21.939Z,17.43
2018-05-17T08:06:48.364Z,15.30
2018-05-17T08:09:15.179Z,16.80
2018-05-17T08:11:41.648Z,16.50
2018-05-17T08:14:08.795Z,13.77
2018-05-17T08:16:35.961Z,14.70
2018-05-17T08:19:02.371Z,15.60
2018-05-17T08:21:29.519Z,15.10
2018-05-17T08:23:56.664Z,15.20
2018-05-17T08:26:23.068Z,14.27
2018-05-17T08:28:49.511Z,17.67
2018-05-17T08:31:15.957Z,14.87
2018-05-17T08:33:42.415Z,16.10
2018-05-17T08:36:09.724Z,15.80
2018-05-17T08:38:36.069Z,15.33
2018-05-17T08:41:03.284Z,15.87
2018-05-17T08:43:29.852Z,14.67
2018-05-17T08:45:57.020Z,15.50
2018-05-17T08:48:24.945Z,17.20
2018-05-17T08:50:51.424Z,16.80
2018-05-17T08:53:18.627Z,14.60
2018-05-17T08:55:45.116Z,15.30
2018-05-17T08:58:12.331Z,17.63
2018-05-17T09:00:38.780Z,16.40
2018-05-17T09:03:05.270Z,14.97
2018-05-17T09:05:31.751Z,16.63
2018-05-17T09:07:58.244Z,16.40
2018-05-17T09:10:24.706Z,14.30
2018-05-17T09:12:51.144Z,15.67
2018-05-17T09:15:17.592Z,15.40
2018-05-17T09:17:43.987Z,15.37
2018-05-17T09:20:10.466Z,15.50
2018-05-17T09:22:36.886Z,16.07
2018-05-17T09:25:04.015Z,15.90
2018-05-17T09:27:30.475Z,16.17
2018-05-17T09:29:56.878Z,14.93
2018-05-17T09:32:23.338Z,14.80
2018-05-17T09:34:49.825Z,16.13
2018-05-17T09:37:16.263Z,15.13
2018-05-17T09:39:42.670Z,15.23
2018-05-17T09:42:09.141Z,13.40
2018-05-17T09:44:35.561Z,14.80
2018-05-17T09:47:01.996Z,13.20
2018-05-17T09:49:28.396Z,14.30
2018-05-17T09:51:55.549Z,14.97
2018-05-17T09:54:22.818Z,15.50
2018-05-17T09:56:49.216Z,14.87
2018-05-17T09:59:15.726Z,14.40
2018-05-17T10:01:42.182Z,13.70
2018-05-17T10:04:08.580Z,14.90
2018-05-17T10:06:34.992Z,16.27
2018-05-17T10:09:01.408Z,14.93
2018-05-17T10:11:28.567Z,13.53
2018-05-17T10:13:54.969Z,14.77
2018-05-17T10:16:22.118Z,14.93
2018-05-17T10:18:49.265Z,15.20
2018-05-17T10:21:16.423Z,16.17
2018-05-17T10:23:42.843Z,15.33
2018-05-17T10:26:09.235Z,15.30
2018-05-17T10:28:35.656Z,17.57
2018-05-17T10:31:02.807Z,12.83
2018-05-17T10:33:29.230Z,13.90
2018-05-17T10:35:55.663Z,13.10
2018-05-17T10:38:22.099Z,13.53
2018-05-17T10:40:48.522Z,12.43
2018-05-17T10:43:14.940Z,12.30
2018-05-17T10:45:42.083Z,9.73
2018-05-17T10:48:09.247Z,9.13
2018-05-17T10:50:36.412Z,9.50
2018-05-17T10:53:02.840Z,9.90
2018-05-17T10:55:29.982Z,11.60
2018-05-17T10:57:57.140Z,10.37
2018-05-17T11:00:23.574Z,11.57
2018-05-17T11:02:50.701Z,11.10
2018-05-17T11:05:17.083Z,10.70
2018-05-17T11:07:43.496Z,11.30
2018-05-17T11:10:09.911Z,10.17
2018-05-17T11:12:37.099Z,9.23
2018-05-17T11:15:03.529Z,10.63
2018-05-17T11:17:29.951Z,10.00
2018-05-17T11:19:56.357Z,9.70
2018-05-17T11:22:23.496Z,11.30
2018-05-17T11:24:50.639Z,9.37
2018-05-17T11:27:17.074Z,9.63
2018-05-17T11:29:44.247Z,9.60
2018-05-17T11:32:10.705Z,12.53
2018-05-17T11:34:37.101Z,12.43
2018-05-17T11:37:04.341Z,12.83
2018-05-17T11:39:30.742Z,13.10
2018-05-17T11:41:57.897Z,12.93
2018-05-17T11:44:24.316Z,14.77
2018-05-17T11:46:50.719Z,14.97
2018-05-17T11:49:17.141Z,15.80
2018-05-17T11:51:44.311Z,15.90
2018-05-17T11:54:10.750Z,14.47
2018-05-17T11:56:37.187Z,14.40
2018-05-17T11:59:03.642Z,14.60
2018-05-17T12:01:30.062Z,16.23
2018-05-17T12:03:56.498Z,16.07
2018-05-17T12:06:22.976Z,30.73
2018-05-17T12:08:50.012Z,15.40
2018-05-17T12:11:16.577Z,14.10
2018-05-17T12:13:43.742Z,14.30
2018-05-17T12:16:10.136Z,12.30
2018-05-17T12:18:36.535Z,16.23
2018-05-17T12:21:03.731Z,15.10
2018-05-17T12:23:30.223Z,13.63
2018-05-17T12:25:56.681Z,12.20
2018-05-17T12:28:23.129Z,10.87
2018-05-17T12:30:50.312Z,12.67
2018-05-17T12:33:16.760Z,12.43
2018-05-17T12:35:43.190Z,11.13
2018-05-17T12:38:09.645Z,14.43
2018-05-17T12:40:36.075Z,11.83
2018-05-17T12:43:03.278Z,13.07
2018-05-17T12:45:29.756Z,13.53
2018-05-17T12:47:56.214Z,17.30
2018-05-17T12:50:22.670Z,14.93
2018-05-17T12:52:49.884Z,12.43
2018-05-17T12:55:16.373Z,13.30
2018-05-17T12:57:42.832Z,10.97
2018-05-17T13:00:09.856Z,11.13
2018-05-17T13:02:36.314Z,10.87
2018-05-17T13:05:02.766Z,9.27
2018-05-17T13:07:29.176Z,8.47
2018-05-17T13:09:55.562Z,8.30
2018-05-17T13:12:22.716Z,7.53
2018-05-17T13:14:49.866Z,8.63
2018-05-17T13:17:16.312Z,7.77
2018-05-17T13:19:43.488Z,5.13
2018-05-17T13:22:09.895Z,5.83
2018-05-17T13:24:37.038Z,4.87
2018-05-17T13:27:04.224Z,5.43
2018-05-17T13:29:30.653Z,4.90
2018-05-17T13:31:57.077Z,5.60
2018-05-17T13:34:23.479Z,4.93
2018-05-17T13:36:50.636Z,4.57
2018-05-17T13:39:17.827Z,4.80
2018-05-17T13:41:44.246Z,5.50
2018-05-17T13:44:11.387Z,7.77
2018-05-17T13:46:37.830Z,8.10
2018-05-17T13:49:05.025Z,7.40
2018-05-17T13:51:32.947Z,10.00
2018-05-17T13:54:00.109Z,10.37
2018-05-17T13:56:26.528Z,12.70
2018-05-17T13:58:52.977Z,12.17
2018-05-17T14:01:19.383Z,10.40
2018-05-17T14:03:45.848Z,12.60
2018-05-17T14:06:12.267Z,13.10
2018-05-17T14:08:38.683Z,12.90
2018-05-17T14:11:05.819Z,11.87
2018-05-17T14:13:33.031Z,11.67
2018-05-17T14:15:59.513Z,11.03
2018-05-17T14:18:26.713Z,11.27
2018-05-17T14:20:53.129Z,12.60
2018-05-17T14:23:19.548Z,15.10
2018-05-17T14:25:45.959Z,10.97
2018-05-17T14:28:13.119Z,11.23
2018-05-17T14:30:39.523Z,10.57
2018-05-17T14:33:05.952Z,9.83
2018-05-17T14:35:32.376Z,11.03
2018-05-17T14:37:58.821Z,10.73
2018-05-17T14:40:25.304Z,11.27
2018-05-17T14:42:51.739Z,9.83
2018-05-17T14:45:18.189Z,11.10
2018-05-17T14:47:44.597Z,12.20
2018-05-17T14:50:11.029Z,11.50
2018-05-17T14:52:37.447Z,11.53
2018-05-17T14:55:03.892Z,13.37
2018-05-17T14:57:30.293Z,12.23
2018-05-17T14:59:56.710Z,13.10
2018-05-17T15:02:24.805Z,12.60
2018-05-17T15:04:51.964Z,13.90
2018-05-17T15:07:18.438Z,11.70
2018-05-17T15:09:44.858Z,11.60
2018-05-17T15:12:11.258Z,11.50
2018-05-17T15:14:38.443Z,13.20
2018-05-17T15:17:04.863Z,12.60
2018-05-17T15:19:31.270Z,12.67
2018-05-17T15:21:58.409Z,11.50
2018-05-17T15:24:24.814Z,12.83
2018-05-17T15:26:51.250Z,13.70
2018-05-17T15:29:17.670Z,15.40
2018-05-17T15:31:44.078Z,13.77
2018-05-17T15:34:10.477Z,12.07
2018-05-17T15:36:37.674Z,12.53
2018-05-17T15:39:04.943Z,16.10
2018-05-17T15:41:31.448Z,12.27
2018-05-17T15:43:58.652Z,13.53
2018-05-17T15:46:25.816Z,13.23
2018-05-17T15:48:52.213Z,12.97
2018-05-17T15:51:18.620Z,11.43
2018-05-17T15:53:45.023Z,11.00
2018-05-17T15:56:12.161Z,11.27
2018-05-17T15:58:38.606Z,10.47
2018-05-17T16:01:05.757Z,10.20
2018-05-17T16:03:32.933Z,10.83
2018-05-17T16:05:59.357Z,11.37
2018-05-17T16:08:25.812Z,10.27
2018-05-17T16:10:52.208Z,10.30
2018-05-17T16:13:19.356Z,11.10
2018-05-17T16:15:47.152Z,11.13
2018-05-17T16:18:13.573Z,11.60
2018-05-17T16:20:39.975Z,10.73
2018-05-17T16:23:07.144Z,13.73
2018-05-17T16:25:34.292Z,12.70
2018-05-17T16:28:01.547Z,11.83
2018-05-17T16:30:27.898Z,10.50
2018-05-17T16:32:54.299Z,10.80
2018-05-17T16:35:21.449Z,10.73
2018-05-17T16:37:48.593Z,10.10
2018-05-17T16:40:15.013Z,10.50
2018-05-17T16:42:42.927Z,11.40
2018-05-17T16:45:09.953Z,11.80
2018-05-17T16:47:37.118Z,11.63
2018-05-17T16:50:04.280Z,13.37
2018-05-17T16:52:30.695Z,12.67
2018-05-17T16:54:57.175Z,12.23
2018-05-17T16:57:23.616Z,13.33
2018-05-17T16:59:50.021Z,13.50
2018-05-17T17:02:17.181Z,12.67
2018-05-17T17:04:43.656Z,15.03
2018-05-17T17:07:10.024Z,15.70
2018-05-17T17:09:36.455Z,15.43
2018-05-17T17:12:02.867Z,15.67
2018-05-17T17:14:30.006Z,14.83
2018-05-17T17:16:56.409Z,16.43
2018-05-17T17:19:22.809Z,15.57
2018-05-17T17:21:49.203Z,16.37
2018-05-17T17:24:15.594Z,14.83
2018-05-17T17:26:42.019Z,16.33
2018-05-17T17:29:08.417Z,16.50
2018-05-17T17:31:35.584Z,18.50
2018-05-17T17:34:02.060Z,17.67
2018-05-17T17:36:28.520Z,18.10
2018-05-17T17:38:54.892Z,18.00
2018-05-17T17:41:21.287Z,17.70
2018-05-17T17:43:48.445Z,19.70
2018-05-17T17:46:15.642Z,20.37
2018-05-17T17:48:42.049Z,19.87
2018-05-17T17:51:08.543Z,24.87
2018-05-17T17:53:34.993Z,21.70
2018-05-17T17:56:02.184Z,24.43
2018-05-17T17:58:28.836Z,24.10
2018-05-17T18:00:55.787Z,26.10
2018-05-17T18:03:22.191Z,21.70
2018-05-17T18:05:48.602Z,23.90
2018-05-17T18:08:15.748Z,23.73
2018-05-17T18:10:42.937Z,22.40
2018-05-17T18:13:09.364Z,23.13
2018-05-17T18:15:35.768Z,23.70
2018-05-17T18:18:02.913Z,20.80
2018-05-17T18:20:30.064Z,23.27
2018-05-17T18:22:57.251Z,20.10
2018-05-17T18:25:24.495Z,22.33
2018-05-17T18:27:50.897Z,21.93
2018-05-17T18:30:18.120Z,21.57
2018-05-17T18:32:44.650Z,23.60
2018-05-17T18:35:11.036Z,21.80
2018-05-17T18:37:37.464Z,19.50
2018-05-17T18:40:03.915Z,21.20
2018-05-17T18:42:30.320Z,19.77
2018-05-17T18:44:56.858Z,20.30
2018-05-17T18:47:23.223Z,20.70
2018-05-17T18:49:49.653Z,20.77
2018-05-17T18:52:16.062Z,19.40
2018-05-17T18:54:43.226Z,19.27
2018-05-17T18:57:10.390Z,20.90
2018-05-17T18:59:36.809Z,20.73
2018-05-17T19:02:03.263Z,19.57
2018-05-17T19:04:29.660Z,20.67
2018-05-17T19:06:56.151Z,19.70
2018-05-17T19:09:22.548Z,19.87
2018-05-17T19:11:48.974Z,17.17
2018-05-17T19:14:15.386Z,19.30
2018-05-17T19:16:41.854Z,19.90
2018-05-17T19:19:09.071Z,18.27
2018-05-17T19:21:35.548Z,19.47
2018-05-17T19:24:02.702Z,18.80
2018-05-17T19:26:29.103Z,21.53
2018-05-17T19:28:55.544Z,18.97
2018-05-17T19:31:22.131Z,19.30
2018-05-17T19:33:48.511Z,22.00
2018-05-17T19:36:15.636Z,18.93
2018-05-17T19:38:42.078Z,18.70
2018-05-17T19:41:09.236Z,20.23
2018-05-17T19:43:35.699Z,20.63
2018-05-17T19:46:02.114Z,21.77
2018-05-17T19:48:29.386Z,21.73
2018-05-17T19:50:56.635Z,22.20
2018-05-17T19:53:23.091Z,19.43
2018-05-17T19:55:49.687Z,18.60
2018-05-17T19:58:16.089Z,19.67
2018-05-17T20:00:43.227Z,19.27
2018-05-17T20:03:09.630Z,21.23
2018-05-17T20:05:36.027Z,20.30
2018-05-17T20:08:02.462Z,23.90
2018-05-17T20:10:29.653Z,24.53
2018-05-17T20:12:56.055Z,24.47
2018-05-17T20:15:22.476Z,25.40
2018-05-17T20:17:48.876Z,22.13
2018-05-17T20:20:15.660Z,24.73
2018-05-17T20:22:43.214Z,23.30
2018-05-17T20:25:09.628Z,22.90
2018-05-17T20:27:36.768Z,25.17
2018-05-17T20:30:03.948Z,22.20
2018-05-17T20:32:30.347Z,25.60
2018-05-17T20:34:57.474Z,24.50
2018-05-17T20:37:23.879Z,25.57
2018-05-17T20:39:50.270Z,25.63
2018-05-17T20:42:16.735Z,23.77
2018-05-17T20:44:43.912Z,25.73
2018-05-17T20:47:10.318Z,26.27
2018-05-17T20:49:36.824Z,28.47
2018-05-17T20:52:03.160Z,28.67
2018-05-17T20:54:30.325Z,26.33
2018-05-17T20:56:56.809Z,26.63
2018-05-17T20:59:23.282Z,26.40
2018-05-17T21:01:49.682Z,28.40
2018-05-17T21:04:16.841Z,25.43
2018-05-17T21:06:43.994Z,27.90
2018-05-17T21:09:11.156Z,28.70
2018-05-17T21:11:38.330Z,28.17
2018-05-17T21:14:04.735Z,25.77
2018-05-17T21:16:31.869Z,30.30
2018-05-17T21:18:58.264Z,29.73
2018-05-17T21:21:24.654Z,31.70
2018-05-17T21:23:51.798Z,31.43
2018-05-17T21:26:19.027Z,32.40
2018-05-17T21:28:46.186Z,33.10
2018-05-17T21:31:12.594Z,32.10
2018-05-17T21:33:39.012Z,33.33
2018-05-17T21:36:05.447Z,33.70
2018-05-17T21:38:31.863Z,31.13
2018-05-17T21:40:58.312Z,34.53
2018-05-17T21:43:24.700Z,34.50
2018-05-17T21:45:51.116Z,37.40
2018-05-17T21:48:17.510Z,35.60
2018-05-17T21:50:43.927Z,35.97
2018-05-17T21:53:10.356Z,37.37
2018-05-17T21:55:36.865Z,33.80
2018-05-17T21:58:03.877Z,36.13
2018-05-17T22:00:30.267Z,34.30
2018-05-17T22:02:56.654Z,33.67
2018-05-17T22:05:23.886Z,32.00
2018-05-17T22:07:51.023Z,35.20
2018-05-17T22:10:17.421Z,36.60
2018-05-17T22:12:43.819Z,39.33
2018-05-17T22:15:10.222Z,35.00
2018-05-17T22:17:36.684Z,37.27
2018-05-17T22:20:03.910Z,36.43
2018-05-17T22:22:30.310Z,36.50
2018-05-17T22:24:56.712Z,36.00
2018-05-17T22:27:23.175Z,36.50
2018-05-17T22:29:49.601Z,36.73
2018-05-17T22:32:16.743Z,36.43
2018-05-17T22:34:43.877Z,39.50
2018-05-17T22:37:11.030Z,39.37
2018-05-17T22:39:38.184Z,40.90
2018-05-17T22:42:05.366Z,40.40
2018-05-17T22:44:31.789Z,35.90
2018-05-17T22:46:58.212Z,40.00
2018-05-17T22:49:25.349Z,37.63
2018-05-17T22:51:52.596Z,37.47
2018-05-17T22:54:18.959Z,34.47
2018-05-17T22:56:57.693Z,40.37
2018-05-17T22:59:24.178Z,37.80
2018-05-17T23:01:51.335Z,39.87
2018-05-17T23:04:17.794Z,40.00
2018-05-17T23:06:44.234Z,38.23
2018-05-17T23:09:10.632Z,38.90
2018-05-17T23:11:37.782Z,35.67
2018-05-17T23:14:04.969Z,39.00
2018-05-17T23:16:31.377Z,41.63
2018-05-17T23:18:58.545Z,38.90
2018-05-17T23:21:24.933Z,36.07
2018-05-17T23:23:51.339Z,39.10
2018-05-17T23:26:17.747Z,35.73
2018-05-17T23:28:44.212Z,40.43
2018-05-17T23:31:11.391Z,35.90
2018-05-17T23:33:37.815Z,44.10
2018-05-17T23:36:04.228Z,40.20
2018-05-17T23:38:30.638Z,37.03
2018-05-17T23:41:10.183Z,35.53
2018-05-17T23:43:36.589Z,40.90
2018-05-17T23:46:03.866Z,37.07
2018-05-17T23:48:30.267Z,37.23
2018-05-17T23:50:57.408Z,39.40
2018-05-17T23:53:24.552Z,41.00
2018-05-17T23:55:51.703Z,39.37
2018-05-17T23:58:18.102Z,39.03
